createdAt,value
2023-04-12T15:19:10.047Z,23.94
2023-04-12T15:22:00.467Z,24.42
2023-04-12T15:24:46.971Z,24.89
2023-04-12T15:27:33.549Z,25.03
2023-04-12T15:30:23.141Z,24.91
2023-04-12T15:33:09.525Z,24.82
2023-04-12T15:35:58.416Z,24.58
2023-04-12T15:38:44.870Z,24.49
2023-04-12T15:41:34.881Z,24.32
2023-04-12T15:44:21.828Z,24.17
2023-04-12T15:47:11.583Z,24.05
2023-04-12T15:49:58.232Z,23.77
2023-04-12T15:52:45.913Z,23.52
2023-04-12T15:55:31.951Z,23.36
2023-04-12T15:58:18.375Z,23.22
2023-04-12T16:01:05.162Z,23.16
2023-04-12T16:03:53.563Z,23.09
2023-04-12T16:06:40.230Z,23.00
2023-04-12T16:09:27.146Z,22.89
2023-04-12T16:12:13.082Z,22.85
2023-04-12T16:14:59.293Z,22.79
2023-04-12T16:17:49.352Z,22.61
2023-04-12T16:20:35.521Z,22.44
2023-04-12T16:23:22.536Z,22.05
2023-04-12T16:26:09.400Z,21.58
2023-04-12T16:28:55.659Z,21.08
2023-04-12T16:31:42.296Z,20.45
2023-04-12T16:34:31.849Z,19.91
2023-04-12T16:37:18.312Z,19.41
2023-04-12T16:40:13.685Z,19.03
2023-04-12T16:43:00.796Z,18.64
2023-04-12T16:45:48.579Z,18.41
2023-04-12T16:48:44.740Z,18.14
2023-04-12T16:51:36.762Z,17.89
2023-04-12T16:54:24.106Z,17.67
2023-04-12T16:57:13.408Z,17.51
2023-04-12T17:00:00.725Z,17.33
2023-04-12T17:02:48.951Z,17.15
2023-04-12T17:05:36.160Z,17.03
2023-04-12T17:08:23.006Z,16.88
2023-04-12T17:11:09.268Z,16.79
2023-04-12T17:13:55.589Z,16.66
2023-04-12T17:16:45.466Z,16.59
2023-04-12T17:19:34.748Z,16.17
2023-04-12T17:22:21.354Z,16.26
2023-04-12T17:25:09.930Z,16.30
2023-04-12T17:27:56.348Z,16.23
2023-04-12T17:30:42.890Z,16.13
2023-04-12T17:33:29.274Z,16.01
2023-04-12T17:36:15.549Z,15.99
2023-04-12T17:39:04.827Z,15.85
2023-04-12T17:42:03.766Z,15.51
2023-04-12T17:44:50.946Z,15.65
2023-04-12T17:47:44.620Z,15.44
2023-04-12T17:50:37.832Z,15.47
2023-04-12T17:53:36.217Z,15.19
2023-04-12T17:56:22.560Z,15.19
2023-04-12T17:59:47.223Z,14.96
2023-04-12T18:02:54.788Z,14.74
2023-04-12T18:05:51.706Z,14.66
2023-04-12T18:08:45.409Z,14.71
2023-04-12T18:11:52.337Z,14.58
2023-04-12T18:14:47.565Z,14.70
2023-04-12T18:17:46.832Z,14.60
2023-04-12T18:20:38.048Z,14.38
2023-04-12T18:23:23.989Z,14.21
2023-04-12T18:26:11.707Z,14.24
2023-04-12T18:29:01.602Z,13.92
2023-04-12T18:31:51.697Z,13.97
2023-04-12T18:34:38.464Z,13.46
2023-04-12T18:37:29.599Z,13.41
2023-04-12T18:40:41.384Z,13.41
2023-04-12T18:43:27.741Z,13.48
2023-04-12T18:46:18.122Z,13.37
2023-04-12T18:49:10.743Z,13.08
2023-04-12T18:51:59.112Z,13.14
2023-04-12T18:54:45.545Z,13.13
2023-04-12T18:57:31.914Z,13.04
2023-04-12T19:01:19.396Z,12.78
2023-04-12T19:03:51.277Z,12.89
2023-04-12T19:06:46.457Z,12.73
2023-04-12T19:09:49.780Z,12.38
2023-04-12T19:12:47.444Z,12.32
2023-04-12T19:15:36.697Z,12.49
2023-04-12T19:18:23.617Z,12.34
2023-04-12T19:21:10.138Z,12.17
2023-04-12T19:23:57.156Z,12.02
2023-04-12T19:27:15.248Z,12.09
2023-04-12T19:30:17.265Z,11.66
2023-04-12T19:33:30.092Z,11.79
2023-04-12T19:36:31.289Z,11.64
2023-04-12T19:39:31.231Z,11.38
2023-04-12T19:42:18.340Z,11.35
2023-04-12T19:45:04.925Z,11.43
2023-04-12T19:47:51.240Z,11.29
2023-04-12T19:50:37.707Z,11.21
2023-04-12T19:53:24.345Z,11.17
2023-04-12T19:56:12.903Z,11.02
2023-04-12T19:59:00.004Z,11.04
2023-04-12T20:01:49.894Z,11.03
2023-04-12T20:04:36.403Z,10.91
2023-04-12T20:07:26.520Z,10.80
2023-04-12T20:10:47.278Z,10.73
2023-04-12T20:14:01.152Z,10.65
2023-04-12T20:16:57.832Z,10.89
2023-04-12T20:19:45.911Z,10.81
2023-04-12T20:22:55.485Z,10.54
2023-04-12T20:25:53.333Z,10.84
2023-04-12T20:28:43.908Z,10.74
2023-04-12T20:31:30.713Z,10.63
2023-04-12T20:34:17.774Z,10.79
2023-04-12T20:37:03.822Z,10.74
2023-04-12T20:39:51.531Z,10.72
2023-04-12T20:42:38.045Z,10.68
2023-04-12T20:45:25.131Z,10.57
2023-04-12T20:48:12.620Z,10.42
2023-04-12T20:50:58.551Z,10.60
2023-04-12T20:53:47.479Z,10.52
2023-04-12T20:56:33.638Z,10.49
2023-04-12T20:59:24.234Z,10.49
2023-04-12T21:05:17.100Z,10.39
2023-04-12T21:08:07.559Z,10.35
2023-04-12T21:10:53.801Z,10.26
2023-04-12T21:13:40.742Z,10.27
2023-04-12T21:16:27.611Z,10.22
2023-04-12T21:19:17.457Z,10.11
2023-04-12T21:22:03.974Z,10.13
2023-04-12T21:24:50.418Z,10.05
2023-04-12T21:27:37.545Z,10.03
2023-04-12T21:30:23.727Z,9.91
2023-04-12T21:33:14.239Z,9.87
2023-04-12T21:36:01.437Z,9.69
2023-04-12T21:38:47.867Z,9.69
2023-04-12T21:41:34.240Z,9.60
2023-04-12T21:44:22.335Z,9.60
2023-04-12T21:47:08.891Z,9.52
2023-04-12T21:49:54.775Z,9.34
2023-04-12T21:52:43.123Z,9.36
2023-04-12T21:55:29.435Z,9.32
2023-04-12T21:58:19.467Z,9.28
2023-04-12T22:01:05.675Z,9.23
2023-04-12T22:03:52.983Z,9.25
2023-04-12T22:06:39.212Z,9.07
2023-04-12T22:09:25.597Z,9.17
2023-04-12T22:12:12.331Z,9.13
2023-04-12T22:14:58.572Z,9.02
2023-04-12T22:17:45.486Z,8.89
2023-04-12T22:20:33.677Z,8.77
2023-04-12T22:23:19.479Z,8.59
2023-04-12T22:26:09.543Z,8.51
2023-04-12T22:28:55.338Z,8.43
2023-04-12T22:31:43.572Z,8.28
2023-04-12T22:34:29.901Z,8.21
2023-04-12T22:37:16.238Z,8.27
2023-04-12T22:40:02.468Z,8.14
2023-04-12T22:42:48.722Z,8.28
2023-04-12T22:45:35.923Z,8.20
2023-04-12T22:48:25.108Z,8.26
2023-04-12T22:51:11.321Z,8.24
2023-04-12T22:53:59.162Z,8.19
2023-04-12T22:56:45.575Z,8.22
2023-04-12T22:59:31.695Z,8.16
2023-04-12T23:02:17.808Z,8.20
2023-04-12T23:05:05.235Z,8.15
2023-04-12T23:07:52.325Z,8.13
2023-04-12T23:10:38.970Z,8.05
2023-04-12T23:13:25.159Z,8.03
2023-04-12T23:16:11.322Z,7.96
2023-04-12T23:18:59.277Z,7.90
2023-04-12T23:21:45.236Z,7.85
2023-04-12T23:24:31.124Z,7.82
2023-04-12T23:27:17.239Z,7.75
2023-04-12T23:30:03.761Z,7.77
2023-04-12T23:32:50.146Z,7.65
2023-04-12T23:35:39.449Z,7.60
2023-04-12T23:38:32.751Z,7.53
2023-04-12T23:41:19.555Z,7.49
2023-04-12T23:44:06.661Z,7.42
2023-04-12T23:46:53.172Z,7.31
2023-04-12T23:49:39.171Z,7.25
2023-04-12T23:52:25.188Z,7.19
2023-04-12T23:55:11.148Z,7.20
2023-04-12T23:57:57.385Z,7.18
